Terminal Aerodrome Forecast
Issued by NWS

Home | Current Version | Previous Version | Text Only | Print | Product List | Glossary On
Versions: 1 2 3 4 5 6 7 8 9 10 11 12
000
FTUS46 KPDT 232300
TAFYKM
TAF
KYKM 232320Z 2400/2424 27011KT P6SM VCSH BKN070
     FM240600 28007KT P6SM SCT100
     FM241800 29014KT P6SM FEW080=

USA.gov is the U.S. government's official web portal to all federal, state and local government web resources and services.